createdAt,value
2023-01-04T00:02:36.011Z,74.82
2023-01-04T00:07:33.345Z,73.84
2023-01-04T00:12:29.913Z,72.02
2023-01-04T00:17:26.450Z,70.37
2023-01-04T00:22:23.097Z,70.41
2023-01-04T00:27:20.284Z,70.37
2023-01-04T00:32:17.093Z,70.68
2023-01-04T00:37:13.832Z,69.92
2023-01-04T00:42:10.487Z,70.08
2023-01-04T00:47:07.939Z,70.32
2023-01-04T00:52:04.710Z,69.43
2023-01-04T00:57:01.441Z,70.36
2023-01-04T01:01:58.530Z,70.42
2023-01-04T01:06:56.221Z,70.29
2023-01-04T01:11:53.448Z,75.04
2023-01-04T01:16:55.869Z,77.44
2023-01-04T01:21:53.720Z,75.89
2023-01-04T01:26:51.099Z,76.16
2023-01-04T01:31:47.844Z,74.57
2023-01-04T01:36:44.665Z,73.54
2023-01-04T01:41:41.321Z,71.70
2023-01-04T01:46:43.287Z,70.42
2023-01-04T01:51:41.502Z,71.14
2023-01-04T01:56:39.512Z,70.38
2023-01-04T02:01:36.344Z,70.02
2023-01-04T02:06:35.594Z,69.25
2023-01-04T02:11:33.259Z,70.15
2023-01-04T02:16:39.874Z,71.08
2023-01-04T02:21:47.978Z,71.14
2023-01-04T02:27:05.148Z,71.09
2023-01-04T02:32:05.706Z,70.58
2023-01-04T02:37:08.250Z,69.75
2023-01-04T02:42:07.971Z,69.04
2023-01-04T02:47:06.780Z,69.13
2023-01-04T02:52:03.488Z,69.48
2023-01-04T02:57:08.746Z,69.21
2023-01-04T03:02:29.852Z,68.79
2023-01-04T03:07:31.597Z,68.88
2023-01-04T03:12:33.071Z,68.48
2023-01-04T03:17:33.812Z,70.56
2023-01-04T03:22:52.637Z,71.13
2023-01-04T03:28:08.699Z,71.29
2023-01-04T03:33:40.707Z,71.06
2023-01-04T03:38:58.271Z,70.63
2023-01-04T03:44:19.356Z,70.35
2023-01-04T03:49:20.563Z,69.91
2023-01-04T03:54:19.702Z,69.69
2023-01-04T03:59:16.386Z,68.90
2023-01-04T04:04:31.308Z,68.61
2023-01-04T04:09:28.582Z,68.23
2023-01-04T04:14:25.229Z,69.05
2023-01-04T04:19:21.813Z,70.55
2023-01-04T04:24:19.672Z,70.39
2023-01-04T04:29:17.654Z,69.25
2023-01-04T04:34:14.249Z,68.85
2023-01-04T04:39:10.827Z,67.65
2023-01-04T04:44:07.934Z,70.73
2023-01-04T04:49:05.745Z,75.51
2023-01-04T04:54:02.725Z,77.36
2023-01-04T04:58:59.424Z,76.04
2023-01-04T05:03:58.428Z,74.79
2023-01-04T05:08:55.756Z,73.58
2023-01-04T05:13:52.347Z,72.35
2023-01-04T05:18:49.016Z,71.88
2023-01-04T05:23:45.581Z,70.59
2023-01-04T05:28:45.960Z,70.97
2023-01-04T05:34:02.153Z,72.86
2023-01-04T05:38:58.740Z,73.64
2023-01-04T05:43:56.160Z,74.51
2023-01-04T05:48:52.614Z,74.64
2023-01-04T05:53:49.419Z,75.75
2023-01-04T05:58:46.404Z,75.78
2023-01-04T06:03:43.841Z,76.14
2023-01-04T06:08:40.578Z,77.26
2023-01-04T06:13:37.292Z,76.96
2023-01-04T06:18:33.783Z,75.83
2023-01-04T06:23:31.000Z,74.67
2023-01-04T06:28:29.002Z,75.21
2023-01-04T06:33:25.571Z,76.08
2023-01-04T06:38:22.323Z,76.43
2023-01-04T06:43:22.204Z,76.67
2023-01-04T06:48:18.841Z,75.56
2023-01-04T06:53:15.480Z,75.40
2023-01-04T06:58:13.428Z,75.62
2023-01-04T07:03:15.981Z,74.62
2023-01-04T07:08:17.130Z,77.68
2023-01-04T07:13:14.315Z,79.55
2023-01-04T07:18:15.417Z,79.12
2023-01-04T07:23:16.313Z,77.15
2023-01-04T07:28:36.976Z,76.59
2023-01-04T07:33:42.483Z,76.62
2023-01-04T07:38:53.423Z,77.30
2023-01-04T07:43:53.730Z,79.41
2023-01-04T07:48:57.028Z,79.07
2023-01-04T07:54:30.398Z,79.53
2023-01-04T07:59:41.087Z,79.35
2023-01-04T08:05:04.137Z,77.17
2023-01-04T08:10:02.862Z,76.74
2023-01-04T08:15:03.351Z,79.97
2023-01-04T08:20:07.649Z,79.47
2023-01-04T08:25:09.322Z,80.37
2023-01-04T08:30:09.939Z,80.15
2023-01-04T08:35:08.798Z,79.45
2023-01-04T08:40:08.195Z,78.55
2023-01-04T08:45:10.711Z,77.79
2023-01-04T08:50:23.424Z,78.22
2023-01-04T08:55:23.691Z,78.28
2023-01-04T09:00:24.924Z,77.84
2023-01-04T09:05:23.275Z,78.25
2023-01-04T09:10:23.455Z,78.27
2023-01-04T09:15:22.641Z,79.00
2023-01-04T09:20:20.746Z,79.20
2023-01-04T09:25:17.427Z,78.83
2023-01-04T09:30:14.898Z,78.72
2023-01-04T09:35:11.691Z,78.69
2023-01-04T09:40:10.835Z,79.05
2023-01-04T09:45:24.663Z,79.78
2023-01-04T09:50:24.299Z,81.75
2023-01-04T09:55:40.989Z,83.17
2023-01-04T10:00:44.057Z,83.00
2023-01-04T10:05:41.794Z,82.81
2023-01-04T10:10:48.233Z,81.72
2023-01-04T10:15:51.360Z,81.03
2023-01-04T10:21:32.760Z,80.19
2023-01-04T10:26:30.800Z,79.24
2023-01-04T10:31:39.962Z,79.34
2023-01-04T10:36:40.535Z,78.49
2023-01-04T10:41:40.419Z,77.99
2023-01-04T10:46:40.971Z,78.02
2023-01-04T10:51:41.088Z,78.73
2023-01-04T10:56:41.652Z,80.27
2023-01-04T11:01:43.526Z,79.56
2023-01-04T11:06:47.268Z,80.09
2023-01-04T11:11:46.132Z,81.30
2023-01-04T11:16:45.277Z,81.86
2023-01-04T11:21:49.493Z,80.94
2023-01-04T11:26:48.817Z,81.94
2023-01-04T11:31:54.305Z,82.64
2023-01-04T11:36:53.174Z,81.62
2023-01-04T11:42:02.915Z,81.99
2023-01-04T11:47:11.703Z,83.04
2023-01-04T11:52:29.093Z,83.09
2023-01-04T11:57:26.834Z,80.56
2023-01-04T12:02:58.690Z,81.17
2023-01-04T12:07:42.126Z,80.82
2023-01-04T12:12:39.815Z,80.69
2023-01-04T12:17:57.599Z,81.39
2023-01-04T12:22:54.153Z,81.14
2023-01-04T12:27:51.682Z,80.01
2023-01-04T12:32:48.390Z,79.13
2023-01-04T12:37:47.860Z,77.98
2023-01-04T12:43:11.339Z,79.50
2023-01-04T12:48:41.940Z,78.93
2023-01-04T12:53:51.546Z,81.48
2023-01-04T12:59:28.909Z,81.09
2023-01-04T13:04:39.710Z,80.33
2023-01-04T13:09:46.410Z,81.24
2023-01-04T13:14:48.066Z,80.89
2023-01-04T13:19:45.775Z,81.42
2023-01-04T13:24:43.580Z,79.96
2023-01-04T13:29:40.496Z,78.54
2023-01-04T13:34:38.360Z,78.13
2023-01-04T13:39:40.894Z,77.38
2023-01-04T13:45:19.702Z,77.26
2023-01-04T13:50:25.555Z,78.56
2023-01-04T13:55:26.868Z,78.18
2023-01-04T14:00:24.332Z,78.32
2023-01-04T14:05:20.948Z,77.01
2023-01-04T14:10:18.689Z,76.73
2023-01-04T14:15:20.212Z,76.05
2023-01-04T14:20:34.004Z,76.18
2023-01-04T14:25:39.941Z,76.51
2023-01-04T14:30:37.205Z,75.24
2023-01-04T14:35:34.617Z,74.11
2023-01-04T14:40:34.717Z,74.16
2023-01-04T14:45:31.308Z,74.59
2023-01-04T14:50:28.732Z,73.70
2023-01-04T14:55:25.351Z,74.71
2023-01-04T15:00:21.927Z,74.92
2023-01-04T15:05:19.478Z,74.69
2023-01-04T15:10:20.945Z,73.78
2023-01-04T15:15:18.012Z,74.86
2023-01-04T15:20:14.713Z,74.78
2023-01-04T15:25:11.664Z,73.57
2023-01-04T15:30:09.982Z,75.69
2023-01-04T15:35:06.921Z,77.51
2023-01-04T15:40:05.357Z,76.45
2023-01-04T15:45:02.341Z,77.72
2023-01-04T15:50:00.186Z,76.50
2023-01-04T15:54:58.360Z,76.68
2023-01-04T15:59:54.911Z,77.00
2023-01-04T16:04:51.566Z,75.80
2023-01-04T16:09:48.858Z,75.67
2023-01-04T16:14:45.708Z,76.07
2023-01-04T16:19:42.336Z,76.25
2023-01-04T16:25:09.930Z,75.74
2023-01-04T16:29:56.144Z,75.73
2023-01-04T16:34:55.063Z,75.19
2023-01-04T16:40:08.624Z,75.03
2023-01-04T16:45:07.140Z,74.87
2023-01-04T16:50:04.083Z,74.17
2023-01-04T16:55:00.686Z,73.72
2023-01-04T16:59:57.321Z,73.24
2023-01-04T17:04:58.915Z,73.24
2023-01-04T17:09:55.541Z,72.99
2023-01-04T17:15:14.911Z,72.34
2023-01-04T17:20:09.812Z,73.67
2023-01-04T17:25:07.026Z,73.59
2023-01-04T17:30:04.035Z,76.86
2023-01-04T17:35:00.690Z,76.23
2023-01-04T17:39:57.861Z,75.61
2023-01-04T17:44:54.554Z,74.18
2023-01-04T17:49:51.147Z,73.43
2023-01-04T17:54:47.695Z,73.12
2023-01-04T17:59:44.942Z,72.85
2023-01-04T18:04:41.530Z,72.37
2023-01-04T18:09:38.326Z,71.32
2023-01-04T18:14:34.981Z,71.76
2023-01-04T18:19:32.226Z,72.30
2023-01-04T18:24:37.902Z,72.77
2023-01-04T18:29:35.464Z,72.48
2023-01-04T18:34:32.759Z,72.45
2023-01-04T18:39:29.374Z,71.96
2023-01-04T18:44:35.829Z,71.69
2023-01-04T18:49:33.330Z,71.58
2023-01-04T18:54:34.884Z,71.45
2023-01-04T18:59:31.972Z,70.92
2023-01-04T19:04:29.190Z,71.11
2023-01-04T19:09:29.943Z,70.80
2023-01-04T19:14:26.539Z,70.40
2023-01-04T19:19:23.130Z,70.90
2023-01-04T19:24:19.727Z,70.80
2023-01-04T19:29:18.950Z,70.88
2023-01-04T19:34:18.161Z,70.91
2023-01-04T19:39:17.498Z,70.72
2023-01-04T19:44:14.277Z,70.15
2023-01-04T19:49:15.253Z,70.32
2023-01-04T19:54:12.832Z,70.65
2023-01-04T19:59:09.420Z,70.68
2023-01-04T20:04:06.038Z,71.34
2023-01-04T20:09:03.526Z,71.31
2023-01-04T20:14:09.134Z,73.26
2023-01-04T20:19:07.220Z,73.41
2023-01-04T20:24:04.813Z,74.19
2023-01-04T20:29:03.557Z,75.87
2023-01-04T20:34:01.416Z,77.99
2023-01-04T20:38:58.905Z,80.05
2023-01-04T20:43:56.143Z,79.54
2023-01-04T20:48:53.140Z,80.37
2023-01-04T20:53:50.078Z,80.97
2023-01-04T20:58:47.449Z,80.99
2023-01-04T21:03:45.053Z,80.94
2023-01-04T21:08:41.993Z,80.44
2023-01-04T21:13:38.698Z,79.22
2023-01-04T21:18:35.493Z,78.33
2023-01-04T21:23:32.754Z,77.66
2023-01-04T21:28:29.271Z,78.69
2023-01-04T21:33:25.865Z,78.91
2023-01-04T21:38:22.468Z,79.30
2023-01-04T21:43:19.628Z,80.74
2023-01-04T21:48:16.110Z,81.82
2023-01-04T21:53:12.906Z,81.77
2023-01-04T21:58:09.656Z,81.20
2023-01-04T22:03:08.131Z,81.02
2023-01-04T22:08:05.158Z,81.68
2023-01-04T22:13:01.671Z,81.43
2023-01-04T22:17:58.253Z,80.25
2023-01-04T22:22:55.416Z,80.13
2023-01-04T22:27:52.014Z,81.04
2023-01-04T22:32:48.873Z,82.17
2023-01-04T22:37:45.451Z,82.42
2023-01-04T22:42:42.723Z,82.45
2023-01-04T22:47:39.315Z,81.85
2023-01-04T22:52:35.852Z,81.72
2023-01-04T22:57:32.487Z,83.48
2023-01-04T23:02:29.734Z,84.68
2023-01-04T23:07:26.274Z,84.32
2023-01-04T23:12:22.804Z,84.21
2023-01-04T23:17:19.337Z,85.23
2023-01-04T23:22:16.615Z,85.91
2023-01-04T23:27:13.269Z,87.44
2023-01-04T23:32:09.958Z,88.21
2023-01-04T23:37:06.799Z,88.96
2023-01-04T23:42:04.142Z,88.77
2023-01-04T23:47:01.739Z,89.66
2023-01-04T23:51:58.638Z,90.50
2023-01-04T23:56:55.482Z,89.82
